Decoded Metar for CYNA (NATASHQUAN in QC, CANADA) (IATA:YNA) | Meteo·Mobile Aviation Weather
aviador You're here:

CYNA Decoded Metar

NATASHQUAN in QC, CANADA
Report Time2018-08-19 05:00:00
UTC Time2018-08-19 05:28:01
Flight Rules vfr VFR
Wind030° at 05 kt
W.Decomp.*RWY 14: 5 kt LCW
W.Rank030° ranks 18
Current wind is below 030° avg. (8.6)
Visibility9999 m
Phenomena:N/A
Clouds:N/A
Expected CloudBase > 2,000 ft AGL from Temp-Dew spread
CeilingNone
Temp11°C (ISA -4)
Dew Point06°C (72% RH)
AAT8.3°C
QNH1016 hPa
Density Alt-407 ft
Elevation36 ft
Report Wrong Elevation
Raw Report
CYNA 190500Z AUTO 03005KT 9SM CLR 11/06 A2999 RMK SLP158=

Extra information for CYNA:More info

Metar Taf Metar & Taf Last 4 Metars F.Rules Stats Wind Profile Meteogram Temp Stats Airport Information Weather charts Add Link Nearby VenuesMetar ALERT Operation Metar Decoded Social comments